createdAt,value
2017-09-26T00:00:53.246Z,25.07
2017-09-26T00:03:20.009Z,26.13
2017-09-26T00:05:46.752Z,24.10
2017-09-26T00:08:13.549Z,27.23
2017-09-26T00:10:40.300Z,25.07
2017-09-26T00:13:07.203Z,32.77
2017-09-26T00:15:33.987Z,24.30
2017-09-26T00:18:00.735Z,28.77
2017-09-26T00:20:27.502Z,24.93
2017-09-26T00:22:54.312Z,24.50
2017-09-26T00:25:21.080Z,26.60
2017-09-26T00:27:47.892Z,25.27
2017-09-26T00:30:14.687Z,25.17
2017-09-26T00:32:41.487Z,24.00
2017-09-26T00:35:08.280Z,31.27
2017-09-26T00:37:35.202Z,28.27
2017-09-26T00:40:01.996Z,29.83
2017-09-26T00:42:28.765Z,25.53
2017-09-26T00:44:55.580Z,32.80
2017-09-26T00:47:22.355Z,26.80
2017-09-26T00:49:49.405Z,26.37
2017-09-26T00:52:16.199Z,35.43
2017-09-26T00:54:42.977Z,27.27
2017-09-26T00:57:09.761Z,24.00
2017-09-26T00:59:36.585Z,26.03
2017-09-26T01:02:03.410Z,32.70
2017-09-26T01:04:30.208Z,30.88
2017-09-26T01:07:00.635Z,26.57
2017-09-26T01:09:27.422Z,28.73
2017-09-26T01:11:54.191Z,27.80
2017-09-26T01:14:21.336Z,32.83
2017-09-26T01:16:48.118Z,27.70
2017-09-26T01:19:14.911Z,30.60
2017-09-26T01:21:41.766Z,26.80
2017-09-26T01:24:08.597Z,28.33
2017-09-26T01:26:35.516Z,26.60
2017-09-26T01:29:02.356Z,23.97
2017-09-26T01:31:29.317Z,28.43
2017-09-26T01:33:56.078Z,28.60
2017-09-26T01:36:22.873Z,27.57
2017-09-26T01:38:49.623Z,26.97
2017-09-26T01:41:20.272Z,26.43
2017-09-26T01:43:47.060Z,24.63
2017-09-26T01:46:13.819Z,25.03
2017-09-26T01:48:40.611Z,26.53
2017-09-26T01:51:07.437Z,23.20
2017-09-26T01:53:34.321Z,29.07
2017-09-26T01:56:01.109Z,25.90
2017-09-26T01:58:42.802Z,33.73
2017-09-26T02:01:09.575Z,29.00
2017-09-26T02:03:36.987Z,25.13
2017-09-26T02:06:03.775Z,27.20
2017-09-26T02:08:30.539Z,27.50
2017-09-26T02:10:57.982Z,29.87
2017-09-26T02:13:24.763Z,31.07
2017-09-26T02:15:51.535Z,23.63
2017-09-26T02:18:18.292Z,25.27
2017-09-26T02:20:45.077Z,23.33
2017-09-26T02:23:11.840Z,23.87
2017-09-26T02:25:38.617Z,23.87
2017-09-26T02:28:05.534Z,27.03
2017-09-26T02:30:32.346Z,34.20
2017-09-26T02:32:59.154Z,22.77
2017-09-26T02:35:25.962Z,24.97
2017-09-26T02:37:52.732Z,37.33
2017-09-26T02:40:19.501Z,27.03
2017-09-26T02:42:46.293Z,27.13
2017-09-26T02:45:13.065Z,24.43
2017-09-26T02:47:39.827Z,27.17
2017-09-26T02:50:06.644Z,23.47
2017-09-26T02:52:33.422Z,22.60
2017-09-26T02:55:00.186Z,29.63
2017-09-26T02:57:26.977Z,27.23
2017-09-26T02:59:53.738Z,27.80
2017-09-26T03:02:20.493Z,30.33
2017-09-26T03:04:47.284Z,28.10
2017-09-26T03:07:14.047Z,27.40
2017-09-26T03:09:40.798Z,26.53
2017-09-26T03:12:07.612Z,26.50
2017-09-26T03:14:34.368Z,29.83
2017-09-26T03:17:01.119Z,29.40
2017-09-26T03:19:27.900Z,26.77
2017-09-26T03:21:55.003Z,29.70
2017-09-26T03:24:21.751Z,25.60
2017-09-26T03:26:48.535Z,28.00
2017-09-26T03:29:15.279Z,30.47
2017-09-26T03:31:42.068Z,27.70
2017-09-26T03:34:08.906Z,25.23
2017-09-26T03:36:35.673Z,33.80
2017-09-26T03:39:02.462Z,30.00
2017-09-26T03:41:29.254Z,33.57
2017-09-26T03:43:56.191Z,35.20
2017-09-26T03:46:22.971Z,31.00
2017-09-26T03:48:49.764Z,31.33
2017-09-26T03:51:16.516Z,29.60
2017-09-26T03:53:43.292Z,29.27
2017-09-26T03:56:10.075Z,27.33
2017-09-26T03:58:36.890Z,33.60
2017-09-26T04:01:03.659Z,31.23
2017-09-26T04:03:30.486Z,28.67
2017-09-26T04:05:57.288Z,33.80
2017-09-26T04:08:24.073Z,34.40
2017-09-26T04:10:51.605Z,32.40
2017-09-26T04:13:18.359Z,31.83
2017-09-26T04:15:45.137Z,31.27
2017-09-26T04:18:12.000Z,34.77
2017-09-26T04:20:38.766Z,32.80
2017-09-26T04:23:05.519Z,40.90
2017-09-26T04:25:32.934Z,31.43
2017-09-26T04:27:59.693Z,35.60
2017-09-26T04:30:26.443Z,33.00
2017-09-26T04:32:53.233Z,31.73
2017-09-26T04:35:20.002Z,32.93
2017-09-26T04:37:46.755Z,40.37
2017-09-26T04:40:13.561Z,37.40
2017-09-26T04:42:40.343Z,34.90
2017-09-26T04:45:07.100Z,34.43
2017-09-26T04:47:34.633Z,35.40
2017-09-26T04:50:01.435Z,38.77
2017-09-26T04:52:28.197Z,36.63
2017-09-26T04:54:55.024Z,37.47
2017-09-26T04:57:21.780Z,43.20
2017-09-26T04:59:48.540Z,36.33
2017-09-26T05:02:15.317Z,42.43
2017-09-26T05:04:42.326Z,37.10
2017-09-26T05:07:09.110Z,36.17
2017-09-26T05:09:35.926Z,37.60
2017-09-26T05:12:02.672Z,36.93
2017-09-26T05:14:29.443Z,40.00
2017-09-26T05:16:56.271Z,39.37
2017-09-26T05:19:23.050Z,38.97
2017-09-26T05:21:49.791Z,36.07
2017-09-26T05:24:16.606Z,40.20
2017-09-26T05:26:43.374Z,38.27
2017-09-26T05:29:10.155Z,36.53
2017-09-26T05:31:36.955Z,38.03
2017-09-26T05:34:03.726Z,39.33
2017-09-26T05:36:30.509Z,35.10
2017-09-26T05:38:57.359Z,37.00
2017-09-26T05:41:24.117Z,35.97
2017-09-26T05:43:50.909Z,39.93
2017-09-26T05:46:17.725Z,39.67
2017-09-26T05:48:44.493Z,41.53
2017-09-26T05:51:11.258Z,41.67
2017-09-26T05:53:38.044Z,39.13
2017-09-26T05:56:04.870Z,38.53
2017-09-26T05:58:31.638Z,34.70
2017-09-26T06:00:58.458Z,40.17
2017-09-26T06:03:25.208Z,35.07
2017-09-26T06:05:51.983Z,38.43
2017-09-26T06:08:18.791Z,39.90
2017-09-26T06:10:45.565Z,36.77
2017-09-26T06:13:12.323Z,42.13
2017-09-26T06:15:39.142Z,44.73
2017-09-26T06:18:05.889Z,38.00
2017-09-26T06:20:32.921Z,47.07
2017-09-26T06:22:59.723Z,36.13
2017-09-26T06:25:26.487Z,44.63
2017-09-26T06:27:53.285Z,38.47
2017-09-26T06:30:20.079Z,36.40
2017-09-26T06:32:46.899Z,41.23
2017-09-26T06:35:13.672Z,38.00
2017-09-26T06:37:40.473Z,39.17
2017-09-26T06:40:07.211Z,39.67
2017-09-26T06:42:34.020Z,43.60
2017-09-26T06:45:00.846Z,42.73
2017-09-26T06:47:27.736Z,40.97
2017-09-26T06:49:54.502Z,43.20
2017-09-26T06:52:22.088Z,43.17
2017-09-26T06:54:48.864Z,41.60
2017-09-26T06:57:15.634Z,41.60
2017-09-26T06:59:42.444Z,38.70
2017-09-26T07:02:09.210Z,41.33
2017-09-26T07:04:35.990Z,44.00
2017-09-26T07:07:02.777Z,45.20
2017-09-26T07:09:29.574Z,45.57
2017-09-26T07:11:56.338Z,47.17
2017-09-26T07:14:23.121Z,44.70
2017-09-26T07:16:49.868Z,44.67
2017-09-26T07:19:17.231Z,43.90
2017-09-26T07:21:44.038Z,48.10
2017-09-26T07:24:10.784Z,43.30
2017-09-26T07:26:37.554Z,43.47
2017-09-26T07:29:04.474Z,40.30
2017-09-26T07:31:31.227Z,47.17
2017-09-26T07:33:58.015Z,45.97
2017-09-26T07:36:24.802Z,45.60
2017-09-26T07:38:51.566Z,49.17
2017-09-26T07:41:18.359Z,48.30
2017-09-26T07:43:45.163Z,44.37
2017-09-26T07:46:11.940Z,43.00
2017-09-26T07:48:38.726Z,46.30
2017-09-26T07:51:05.508Z,43.67
2017-09-26T07:53:32.271Z,40.50
2017-09-26T07:55:59.020Z,47.13
2017-09-26T07:58:25.832Z,43.87
2017-09-26T08:00:53.618Z,49.50
2017-09-26T08:03:21.303Z,43.30
2017-09-26T08:05:49.298Z,42.90
2017-09-26T08:08:16.960Z,49.77
2017-09-26T08:10:44.492Z,46.83
2017-09-26T08:13:11.310Z,48.67
2017-09-26T08:15:38.695Z,45.97
2017-09-26T08:18:05.463Z,40.13
2017-09-26T08:20:32.234Z,48.10
2017-09-26T08:22:58.985Z,41.17
2017-09-26T08:25:25.744Z,51.30
2017-09-26T08:27:52.550Z,51.90
2017-09-26T08:30:19.300Z,44.60
2017-09-26T08:32:46.046Z,57.33
2017-09-26T08:35:12.929Z,48.73
2017-09-26T08:37:40.370Z,50.03
2017-09-26T08:40:07.160Z,45.87
2017-09-26T08:42:33.967Z,44.00
2017-09-26T08:45:00.731Z,45.07
2017-09-26T08:47:27.586Z,48.90
2017-09-26T08:49:54.386Z,47.00
2017-09-26T08:52:21.128Z,59.50
2017-09-26T08:54:48.874Z,48.43
2017-09-26T08:57:15.651Z,51.53
2017-09-26T08:59:42.439Z,50.67
2017-09-26T09:02:09.196Z,43.87
2017-09-26T09:04:36.018Z,48.07
2017-09-26T09:07:02.796Z,49.17
2017-09-26T09:09:29.579Z,41.60
2017-09-26T09:11:56.400Z,51.37
2017-09-26T09:14:23.158Z,45.77
2017-09-26T09:16:49.958Z,45.47
2017-09-26T09:19:17.305Z,53.70
2017-09-26T09:21:44.068Z,53.20
2017-09-26T09:24:10.836Z,56.60
2017-09-26T09:26:37.624Z,49.10
2017-09-26T09:29:04.377Z,50.77
2017-09-26T09:31:31.155Z,56.90
2017-09-26T09:33:57.966Z,58.77
2017-09-26T09:36:24.741Z,46.60
2017-09-26T09:38:51.522Z,51.20
2017-09-26T09:41:18.308Z,60.07
2017-09-26T09:43:45.056Z,49.57
2017-09-26T09:46:11.818Z,60.03
2017-09-26T09:48:38.603Z,52.87
2017-09-26T09:51:05.382Z,57.67
2017-09-26T09:53:32.154Z,57.97
2017-09-26T09:55:59.702Z,53.67
2017-09-26T09:58:26.459Z,60.20
2017-09-26T10:00:53.222Z,59.00
2017-09-26T10:03:20.004Z,68.43
2017-09-26T10:05:46.774Z,65.50
2017-09-26T10:08:13.538Z,59.27
2017-09-26T10:10:40.337Z,58.83
2017-09-26T10:13:07.107Z,62.00
2017-09-26T10:15:33.856Z,60.70
2017-09-26T10:18:00.707Z,59.17
2017-09-26T10:20:27.474Z,62.63
2017-09-26T10:22:54.230Z,64.33
2017-09-26T10:25:21.797Z,63.03
2017-09-26T10:27:48.546Z,58.60
2017-09-26T10:30:16.448Z,57.87
2017-09-26T10:32:43.239Z,51.30
2017-09-26T10:35:09.992Z,52.20
2017-09-26T10:37:36.770Z,58.50
2017-09-26T10:40:03.578Z,51.63
2017-09-26T10:42:30.349Z,54.90
2017-09-26T10:44:57.102Z,54.47
2017-09-26T10:47:24.378Z,55.50
2017-09-26T10:49:51.149Z,44.70
2017-09-26T10:52:17.918Z,51.90
2017-09-26T10:54:44.700Z,61.10
2017-09-26T10:57:11.490Z,58.63
2017-09-26T10:59:38.261Z,54.57
2017-09-26T11:02:05.214Z,56.73
2017-09-26T11:04:31.995Z,51.83
2017-09-26T11:06:58.744Z,55.50
2017-09-26T11:09:25.547Z,49.20
2017-09-26T11:11:52.304Z,53.73
2017-09-26T11:14:19.053Z,54.67
2017-09-26T11:16:46.160Z,53.13
2017-09-26T11:19:12.929Z,54.50
2017-09-26T11:21:39.684Z,51.17
2017-09-26T11:24:06.474Z,53.87
2017-09-26T11:26:33.227Z,55.40
2017-09-26T11:29:00.006Z,69.63
2017-09-26T11:31:26.799Z,54.13
2017-09-26T11:33:53.547Z,64.50
2017-09-26T11:36:20.313Z,64.43
2017-09-26T11:38:47.153Z,68.60
2017-09-26T11:41:13.908Z,61.23
2017-09-26T11:43:40.679Z,67.77
2017-09-26T11:46:07.484Z,71.80
2017-09-26T11:48:34.246Z,57.93
2017-09-26T11:51:01.005Z,60.57
2017-09-26T11:53:27.804Z,57.30
2017-09-26T11:55:54.584Z,57.70
2017-09-26T11:58:21.346Z,52.07
2017-09-26T12:00:48.222Z,54.33
2017-09-26T12:03:14.994Z,62.50
2017-09-26T12:05:41.776Z,52.53
2017-09-26T12:08:08.614Z,45.63
2017-09-26T12:10:35.371Z,51.67
2017-09-26T12:13:07.807Z,54.80
2017-09-26T12:15:34.613Z,51.53
2017-09-26T12:18:01.459Z,47.80
2017-09-26T12:20:28.226Z,41.00
2017-09-26T12:22:55.040Z,55.67
2017-09-26T12:25:21.801Z,47.63
2017-09-26T12:27:48.548Z,41.27
2017-09-26T12:30:15.434Z,43.47
2017-09-26T12:32:42.382Z,42.73
2017-09-26T12:35:09.176Z,42.87
2017-09-26T12:37:36.406Z,53.27
2017-09-26T12:40:03.234Z,54.73
2017-09-26T12:42:30.064Z,62.77
2017-09-26T12:44:56.922Z,59.23
2017-09-26T12:47:23.701Z,68.80
2017-09-26T12:49:51.291Z,65.63
2017-09-26T12:52:18.442Z,63.83
2017-09-26T12:54:45.234Z,64.47
2017-09-26T12:57:12.009Z,65.03
2017-09-26T12:59:38.789Z,65.10
2017-09-26T13:02:05.611Z,70.33
2017-09-26T13:04:32.347Z,58.37
2017-09-26T13:06:59.283Z,67.60
2017-09-26T13:09:26.045Z,64.70
2017-09-26T13:11:52.812Z,59.93
2017-09-26T13:14:19.620Z,62.53
2017-09-26T13:16:46.407Z,67.63
2017-09-26T13:19:13.189Z,66.50
2017-09-26T13:21:39.967Z,69.13
2017-09-26T13:24:06.719Z,61.33
2017-09-26T13:26:33.478Z,66.33
2017-09-26T13:29:00.256Z,61.77
2017-09-26T13:31:27.018Z,61.97
2017-09-26T13:33:53.792Z,65.83
2017-09-26T13:36:20.591Z,63.83
2017-09-26T13:38:47.336Z,73.27
2017-09-26T13:41:14.313Z,73.77
2017-09-26T13:43:41.114Z,68.23
2017-09-26T13:46:08.066Z,77.20
2017-09-26T13:48:35.453Z,69.20
2017-09-26T13:51:02.276Z,63.07
2017-09-26T13:53:29.040Z,56.97
2017-09-26T13:55:55.831Z,70.40
2017-09-26T13:58:22.665Z,64.40
2017-09-26T14:00:49.715Z,63.57
2017-09-26T14:03:16.479Z,58.20
2017-09-26T14:05:43.285Z,55.23
2017-09-26T14:08:10.064Z,61.43
2017-09-26T14:10:36.839Z,54.70
2017-09-26T14:13:03.654Z,61.63
2017-09-26T14:15:30.412Z,56.50
2017-09-26T14:17:57.174Z,62.73
2017-09-26T14:20:24.003Z,63.07
2017-09-26T14:22:50.829Z,54.93
2017-09-26T14:25:17.584Z,63.53
2017-09-26T14:27:44.385Z,51.10
2017-09-26T14:30:11.135Z,54.50
2017-09-26T14:32:37.888Z,49.43
2017-09-26T14:35:04.711Z,54.17
2017-09-26T14:37:31.455Z,53.73
2017-09-26T14:39:58.244Z,52.33
2017-09-26T14:42:25.066Z,53.63
2017-09-26T14:44:51.886Z,58.75
2017-09-26T14:47:18.669Z,50.60
2017-09-26T14:49:45.686Z,54.57
2017-09-26T14:52:12.452Z,52.07
2017-09-26T14:54:39.234Z,58.13
2017-09-26T14:57:06.046Z,52.33
2017-09-26T14:59:32.815Z,56.33
2017-09-26T15:01:59.655Z,55.73
2017-09-26T15:04:26.487Z,55.90
2017-09-26T15:06:53.253Z,52.47
2017-09-26T15:09:20.066Z,52.10
2017-09-26T15:11:46.874Z,57.87
2017-09-26T15:14:13.652Z,51.03
2017-09-26T15:16:40.546Z,56.30
2017-09-26T15:19:07.387Z,51.13
2017-09-26T15:21:34.630Z,49.27
2017-09-26T15:24:01.662Z,49.23
2017-09-26T15:26:28.453Z,49.07
2017-09-26T15:28:55.220Z,62.20
2017-09-26T15:31:22.082Z,54.23
2017-09-26T15:33:48.885Z,54.40
2017-09-26T15:36:16.143Z,53.23
2017-09-26T15:38:43.066Z,53.30
2017-09-26T15:41:09.874Z,57.90
2017-09-26T15:43:36.650Z,60.10
2017-09-26T15:46:03.399Z,56.03
2017-09-26T15:48:30.187Z,58.47
2017-09-26T15:50:57.382Z,47.67
2017-09-26T15:53:24.170Z,49.40
2017-09-26T15:55:51.645Z,47.53
2017-09-26T15:58:18.457Z,50.27
2017-09-26T16:00:45.269Z,57.93
2017-09-26T16:03:12.077Z,49.50
2017-09-26T16:05:38.822Z,45.03
2017-09-26T16:08:05.580Z,53.90
2017-09-26T16:10:32.381Z,48.20
2017-09-26T16:12:59.137Z,50.90
2017-09-26T16:15:25.923Z,53.03
2017-09-26T16:17:52.946Z,52.00
2017-09-26T16:20:19.713Z,49.77
2017-09-26T16:22:46.465Z,44.40
2017-09-26T16:25:13.271Z,49.63
2017-09-26T16:27:40.042Z,47.17
2017-09-26T16:30:06.819Z,58.60
2017-09-26T16:32:33.947Z,54.60
2017-09-26T16:35:00.704Z,70.80
2017-09-26T16:37:27.470Z,59.67
2017-09-26T16:39:54.278Z,59.90
2017-09-26T16:42:21.033Z,56.57
2017-09-26T16:44:47.811Z,60.03
2017-09-26T16:47:14.595Z,63.60
2017-09-26T16:49:41.343Z,62.43
2017-09-26T16:52:08.093Z,51.60
2017-09-26T16:54:34.911Z,57.43
2017-09-26T16:57:01.651Z,59.77
2017-09-26T16:59:28.864Z,51.40
2017-09-26T17:01:55.648Z,46.37
2017-09-26T17:04:22.402Z,60.60
2017-09-26T17:06:49.151Z,58.10
2017-09-26T17:09:15.950Z,59.20
2017-09-26T17:11:42.707Z,75.83
2017-09-26T17:14:09.457Z,72.23
2017-09-26T17:16:36.282Z,61.40
2017-09-26T17:19:03.040Z,66.20
2017-09-26T17:21:29.783Z,68.47
2017-09-26T17:23:56.573Z,65.03
2017-09-26T17:26:23.346Z,60.10
2017-09-26T17:28:50.165Z,68.07
2017-09-26T17:31:17.102Z,75.93
2017-09-26T17:33:43.858Z,63.40
2017-09-26T17:36:10.620Z,52.20
2017-09-26T17:38:37.428Z,67.63
2017-09-26T17:41:04.178Z,63.20
2017-09-26T17:43:30.958Z,65.20
2017-09-26T17:45:57.757Z,58.83
2017-09-26T17:48:24.520Z,64.47
2017-09-26T17:50:51.450Z,58.43
2017-09-26T17:53:18.274Z,63.40
2017-09-26T17:55:45.047Z,65.00
2017-09-26T17:58:11.788Z,63.17
2017-09-26T18:00:38.568Z,58.80
2017-09-26T18:03:05.390Z,57.53
2017-09-26T18:05:32.212Z,60.60
2017-09-26T18:07:59.308Z,53.03
2017-09-26T18:10:26.135Z,66.60
2017-09-26T18:12:52.910Z,62.67
2017-09-26T18:15:19.683Z,59.33
2017-09-26T18:17:46.458Z,59.90
2017-09-26T18:20:13.230Z,62.63
2017-09-26T18:22:40.146Z,57.93
2017-09-26T18:25:07.378Z,52.70
2017-09-26T18:27:34.189Z,58.73
2017-09-26T18:30:01.349Z,60.57
2017-09-26T18:32:28.134Z,58.13
2017-09-26T18:34:54.904Z,66.20
2017-09-26T18:37:22.910Z,62.17
2017-09-26T18:39:49.726Z,61.33
2017-09-26T18:42:16.494Z,62.40
2017-09-26T18:44:43.295Z,52.57
2017-09-26T18:47:10.047Z,61.23
2017-09-26T18:49:36.804Z,59.37
2017-09-26T18:52:03.635Z,54.30
2017-09-26T18:54:30.419Z,49.43
2017-09-26T18:56:57.188Z,55.17
2017-09-26T18:59:23.980Z,60.50
2017-09-26T19:01:50.977Z,52.17
2017-09-26T19:04:18.356Z,63.73
2017-09-26T19:06:45.405Z,62.60
2017-09-26T19:09:12.172Z,66.27
2017-09-26T19:11:38.974Z,55.00
2017-09-26T19:14:05.862Z,68.50
2017-09-26T19:16:32.859Z,68.73
2017-09-26T19:18:59.611Z,64.17
2017-09-26T19:21:26.435Z,62.63
2017-09-26T19:23:53.179Z,59.17
2017-09-26T19:26:19.940Z,61.00
2017-09-26T19:28:46.728Z,60.47
2017-09-26T19:31:13.491Z,65.53
2017-09-26T19:33:40.692Z,73.27
2017-09-26T19:36:07.512Z,65.50
2017-09-26T19:38:34.294Z,59.87
2017-09-26T19:41:01.405Z,61.97
2017-09-26T19:43:28.229Z,67.00
2017-09-26T19:45:55.002Z,67.70
2017-09-26T19:48:21.919Z,65.73
2017-09-26T19:50:48.838Z,74.50
2017-09-26T19:53:15.631Z,73.90
2017-09-26T19:55:42.405Z,67.37
2017-09-26T19:58:10.135Z,62.70
2017-09-26T20:00:36.904Z,60.07
2017-09-26T20:03:03.669Z,69.50
2017-09-26T20:05:30.455Z,65.80
2017-09-26T20:07:57.290Z,68.80
2017-09-26T20:10:24.956Z,65.97
2017-09-26T20:12:51.764Z,77.87
2017-09-26T20:15:18.569Z,67.70
2017-09-26T20:17:45.622Z,67.70
2017-09-26T20:20:12.557Z,71.03
2017-09-26T20:22:39.339Z,60.03
2017-09-26T20:25:06.197Z,75.97
2017-09-26T20:27:33.242Z,69.67
2017-09-26T20:29:59.992Z,75.50
2017-09-26T20:32:26.786Z,68.83
2017-09-26T20:34:54.684Z,76.80
2017-09-26T20:37:21.624Z,75.33
2017-09-26T20:39:48.407Z,71.47
2017-09-26T20:42:15.187Z,75.73
2017-09-26T20:44:41.978Z,78.43
2017-09-26T20:47:08.910Z,64.40
2017-09-26T20:49:35.695Z,70.70
2017-09-26T20:52:02.456Z,67.03
2017-09-26T20:54:29.205Z,68.77
2017-09-26T20:56:56.024Z,67.90
2017-09-26T20:59:22.792Z,67.27
2017-09-26T21:01:50.159Z,75.53
2017-09-26T21:04:16.945Z,72.27
2017-09-26T21:06:43.743Z,70.13
2017-09-26T21:09:10.492Z,71.60
2017-09-26T21:11:37.267Z,59.37
2017-09-26T21:14:04.032Z,64.10
2017-09-26T21:16:31.647Z,61.43
2017-09-26T21:19:04.650Z,71.43
2017-09-26T21:21:34.143Z,62.53
2017-09-26T21:24:18.182Z,63.20
2017-09-26T21:26:49.223Z,58.77
2017-09-26T21:29:20.445Z,69.00
2017-09-26T21:31:47.745Z,67.43
2017-09-26T21:34:14.875Z,68.30
2017-09-26T21:36:42.721Z,60.17
2017-09-26T21:39:11.438Z,61.70
2017-09-26T21:41:40.769Z,68.17
2017-09-26T21:44:07.603Z,66.67
2017-09-26T21:46:34.379Z,61.57
2017-09-26T21:49:01.171Z,68.23
2017-09-26T21:51:27.983Z,60.07
2017-09-26T21:53:54.750Z,60.37
2017-09-26T21:56:21.514Z,68.40
2017-09-26T21:58:49.127Z,66.17
2017-09-26T22:01:15.983Z,67.40
2017-09-26T22:03:42.723Z,73.10
2017-09-26T22:06:09.595Z,72.57
2017-09-26T22:08:36.402Z,70.90
2017-09-26T22:11:03.213Z,78.13
2017-09-26T22:13:30.024Z,76.93
2017-09-26T22:15:56.782Z,71.10
2017-09-26T22:18:23.558Z,83.30
2017-09-26T22:20:50.370Z,74.50
2017-09-26T22:23:17.139Z,76.47
2017-09-26T22:25:43.950Z,81.87
2017-09-26T22:28:10.749Z,92.57
2017-09-26T22:30:37.541Z,85.80
2017-09-26T22:33:04.311Z,84.23
2017-09-26T22:35:31.196Z,79.80
2017-09-26T22:37:57.977Z,85.73
2017-09-26T22:40:24.893Z,88.77
2017-09-26T22:42:51.711Z,83.73
2017-09-26T22:45:18.540Z,84.20
2017-09-26T22:47:45.364Z,89.13
2017-09-26T22:50:12.189Z,94.57
2017-09-26T22:52:39.034Z,89.93
2017-09-26T22:55:05.804Z,94.60
2017-09-26T22:57:32.679Z,106.00
2017-09-26T22:59:59.485Z,98.93
2017-09-26T23:02:26.254Z,102.47
2017-09-26T23:04:53.111Z,104.10
2017-09-26T23:07:19.857Z,108.27
2017-09-26T23:09:46.605Z,88.37
2017-09-26T23:12:13.420Z,104.20
2017-09-26T23:14:40.189Z,86.93
2017-09-26T23:17:06.930Z,97.10
2017-09-26T23:19:33.718Z,89.03
2017-09-26T23:22:00.494Z,92.33
2017-09-26T23:24:27.251Z,90.20
2017-09-26T23:26:54.122Z,91.20
2017-09-26T23:29:20.868Z,85.30
2017-09-26T23:31:47.631Z,92.73
2017-09-26T23:34:14.462Z,91.70
2017-09-26T23:36:41.226Z,95.47
2017-09-26T23:39:08.007Z,84.90
2017-09-26T23:41:34.842Z,86.30
2017-09-26T23:44:01.593Z,74.03
2017-09-26T23:46:28.360Z,63.90
2017-09-26T23:48:55.159Z,74.90
2017-09-26T23:51:21.945Z,72.77
2017-09-26T23:53:48.688Z,65.33
2017-09-26T23:56:15.530Z,73.67
2017-09-26T23:58:42.298Z,69.00
